This is the latest recevied weather packets stored in our database for station/object HI3R-13. If no packets are shown the sender has not sent any weather packets the latest 10 day(s).
| Time | Temp. | Humidity | Pressure | Rain* | Wind** | Luminosity | Snow |
|---|---|---|---|---|---|---|---|
| 1777574717 | 31.11° C | 53% | 982.5 hPa | 0 mm | - | - | - |
| 1777572917 | 30.56° C | 58% | 982.9 hPa | 0 mm | - | - | - |
| 1777560917 | 28.33° C | 66% | 985.1 hPa | 0 mm | - | - | - |
| 1777558516 | 27.22° C | 67% | 985 hPa | 0 mm | - | - | - |
| 1777555516 | 26.67° C | 69% | 985 hPa | 0 mm | - | - | - |
| 1777553116 | 25° C | 82% | 984.9 hPa | 0 mm | - | - | - |
| 1777550716 | 22.22° C | 92% | 984.7 hPa | 0 mm | - | - | - |
| 1777550116 | 21.67° C | 92% | 984.8 hPa | 0 mm | - | - | - |
| 1777546516 | 20.56° C | 91% | 984 hPa | 0 mm | - | - | - |
| 1777545916 | 20.56° C | 92% | 984 hPa | 0.25 mm | - | - | - |
| 1777542918 | 20.56° C | 91% | 983.1 hPa | 0.25 mm | - | - | - |
| 1777535137 | 21.11° C | 90% | 982.8 hPa | 0 mm | - | - | - |
| 1777532737 | 21.67° C | 90% | 983.4 hPa | 0 mm | - | - | - |
| 1777530917 | 21.67° C | 90% | 983.8 hPa | 0 mm | - | - | - |
| 1777527317 | 21.67° C | 91% | 984.5 hPa | 0.25 mm | - | - | - |
| 1777525517 | 21.67° C | 91% | 985.4 hPa | 0.25 mm | - | - | - |
| 1777520718 | 22.22° C | 90% | 986.9 hPa | 1.52 mm | - | - | - |
| 1777520117 | 22.22° C | 90% | 987 hPa | 1.52 mm | - | - | - |
| 1777515317 | 22.22° C | 90% | 987.5 hPa | 7.87 mm | - | - | - |
| 1777508117 | 22.78° C | 90% | 985.8 hPa | 2.03 mm | - | - | - |
| 1777506317 | 22.78° C | 89% | 984.9 hPa | 12.7 mm | - | - | - |
| 1777505717 | 22.78° C | 89% | 984.6 hPa | 15.49 mm | - | - | - |
| 1777502717 | 23.33° C | 84% | 984.6 hPa | 4.83 mm | - | - | - |
| 1777485916 | 30.56° C | 55% | 984.3 hPa | 0 mm | - | - | - |
| 1777484738 | 30.56° C | 56% | 984.5 hPa | 0 mm | - | - | - |
* Rain latest hour (hover to see other rain measurements)
** Current wind speed in m/s (hover to see current wind gust speed)